sensor_id;sensor_type;location;lat;lon;timestamp;pressure;altitude;pressure_sealevel;temperature
20730;BMP280;10526;50.850;12.928;2023-04-24T00:01:37;96751.25;;;12.52
20730;BMP280;10526;50.850;12.928;2023-04-24T00:06:01;96751.50;;;12.45
20730;BMP280;10526;50.850;12.928;2023-04-24T00:10:24;96750.28;;;12.37
20730;BMP280;10526;50.850;12.928;2023-04-24T00:14:46;96743.84;;;12.34
20730;BMP280;10526;50.850;12.928;2023-04-24T00:19:08;96745.91;;;12.30
20730;BMP280;10526;50.850;12.928;2023-04-24T00:23:31;96751.38;;;12.26
20730;BMP280;10526;50.850;12.928;2023-04-24T00:27:53;96750.06;;;12.31
20730;BMP280;10526;50.850;12.928;2023-04-24T00:32:15;96741.63;;;12.32
20730;BMP280;10526;50.850;12.928;2023-04-24T00:36:39;96735.09;;;12.33
20730;BMP280;10526;50.850;12.928;2023-04-24T00:41:02;96738.97;;;12.32
20730;BMP280;10526;50.850;12.928;2023-04-24T00:45:24;96730.66;;;12.30
20730;BMP280;10526;50.850;12.928;2023-04-24T00:49:46;96724.69;;;12.26
20730;BMP280;10526;50.850;12.928;2023-04-24T00:54:08;96736.69;;;12.22
20730;BMP280;10526;50.850;12.928;2023-04-24T00:58:31;96727.59;;;12.19
20730;BMP280;10526;50.850;12.928;2023-04-24T01:02:53;96723.13;;;12.16
20730;BMP280;10526;50.850;12.928;2023-04-24T01:07:20;96732.91;;;12.10
20730;BMP280;10526;50.850;12.928;2023-04-24T01:11:45;96725.41;;;12.05
20730;BMP280;10526;50.850;12.928;2023-04-24T01:16:07;96731.75;;;11.98
20730;BMP280;10526;50.850;12.928;2023-04-24T01:20:30;96723.66;;;11.89
20730;BMP280;10526;50.850;12.928;2023-04-24T01:24:53;96722.44;;;11.81
20730;BMP280;10526;50.850;12.928;2023-04-24T01:29:15;96712.31;;;11.76
20730;BMP280;10526;50.850;12.928;2023-04-24T01:33:37;96713.63;;;11.71
20730;BMP280;10526;50.850;12.928;2023-04-24T01:37:59;96718.31;;;11.67
20730;BMP280;10526;50.850;12.928;2023-04-24T01:42:21;96721.00;;;11.67
20730;BMP280;10526;50.850;12.928;2023-04-24T01:46:44;96721.44;;;11.66
20730;BMP280;10526;50.850;12.928;2023-04-24T01:51:06;96723.97;;;11.69
20730;BMP280;10526;50.850;12.928;2023-04-24T01:55:28;96730.38;;;11.72
20730;BMP280;10526;50.850;12.928;2023-04-24T01:59:51;96732.91;;;11.75
20730;BMP280;10526;50.850;12.928;2023-04-24T02:04:13;96714.97;;;11.76
20730;BMP280;10526;50.850;12.928;2023-04-24T02:08:37;96729.41;;;11.78
20730;BMP280;10526;50.850;12.928;2023-04-24T02:13:00;96732.38;;;11.81
20730;BMP280;10526;50.850;12.928;2023-04-24T02:17:22;96730.31;;;11.85
20730;BMP280;10526;50.850;12.928;2023-04-24T02:21:44;96727.66;;;11.85
20730;BMP280;10526;50.850;12.928;2023-04-24T02:26:06;96730.00;;;11.83
20730;BMP280;10526;50.850;12.928;2023-04-24T02:30:29;96732.38;;;11.81
20730;BMP280;10526;50.850;12.928;2023-04-24T02:34:50;96738.56;;;11.77
20730;BMP280;10526;50.850;12.928;2023-04-24T02:39:12;96726.53;;;11.73
20730;BMP280;10526;50.850;12.928;2023-04-24T02:43:36;96729.84;;;11.64
20730;BMP280;10526;50.850;12.928;2023-04-24T02:47:58;96731.28;;;11.56
20730;BMP280;10526;50.850;12.928;2023-04-24T02:52:20;96727.00;;;11.46
20730;BMP280;10526;50.850;12.928;2023-04-24T02:56:42;96728.53;;;11.34
20730;BMP280;10526;50.850;12.928;2023-04-24T03:01:04;96719.69;;;11.25
20730;BMP280;10526;50.850;12.928;2023-04-24T03:05:26;96719.72;;;11.12
20730;BMP280;10526;50.850;12.928;2023-04-24T03:09:49;96721.41;;;11.06
20730;BMP280;10526;50.850;12.928;2023-04-24T03:14:11;96733.34;;;11.01
20730;BMP280;10526;50.850;12.928;2023-04-24T03:18:33;96719.09;;;10.95
20730;BMP280;10526;50.850;12.928;2023-04-24T03:22:55;96721.53;;;10.89
20730;BMP280;10526;50.850;12.928;2023-04-24T03:27:20;96723.13;;;10.87
20730;BMP280;10526;50.850;12.928;2023-04-24T03:31:51;96722.88;;;10.81
20730;BMP280;10526;50.850;12.928;2023-04-24T03:36:14;96719.50;;;10.81
20730;BMP280;10526;50.850;12.928;2023-04-24T03:40:36;96718.84;;;10.77
20730;BMP280;10526;50.850;12.928;2023-04-24T03:45:08;96714.34;;;10.74
20730;BMP280;10526;50.850;12.928;2023-04-24T03:49:33;96713.63;;;10.73
20730;BMP280;10526;50.850;12.928;2023-04-24T03:53:56;96724.81;;;10.81
20730;BMP280;10526;50.850;12.928;2023-04-24T03:58:22;96720.13;;;10.85
20730;BMP280;10526;50.850;12.928;2023-04-24T04:02:46;96718.13;;;10.89
20730;BMP280;10526;50.850;12.928;2023-04-24T04:07:09;96714.94;;;10.94
20730;BMP280;10526;50.850;12.928;2023-04-24T04:11:32;96708.63;;;11.01
20730;BMP280;10526;50.850;12.928;2023-04-24T04:15:54;96716.84;;;11.06
20730;BMP280;10526;50.850;12.928;2023-04-24T04:20:16;96716.75;;;11.10
20730;BMP280;10526;50.850;12.928;2023-04-24T04:24:38;96721.50;;;11.15
20730;BMP280;10526;50.850;12.928;2023-04-24T04:29:04;96731.22;;;11.21
20730;BMP280;10526;50.850;12.928;2023-04-24T04:33:28;96725.22;;;11.30
20730;BMP280;10526;50.850;12.928;2023-04-24T04:37:51;96720.88;;;11.36
20730;BMP280;10526;50.850;12.928;2023-04-24T04:42:39;96720.63;;;11.43
20730;BMP280;10526;50.850;12.928;2023-04-24T04:47:02;96719.25;;;11.52
20730;BMP280;10526;50.850;12.928;2023-04-24T04:51:30;96706.53;;;11.56
20730;BMP280;10526;50.850;12.928;2023-04-24T04:55:53;96710.25;;;11.58
20730;BMP280;10526;50.850;12.928;2023-04-24T05:00:19;96723.16;;;11.60
20730;BMP280;10526;50.850;12.928;2023-04-24T05:04:45;96729.72;;;11.68
20730;BMP280;10526;50.850;12.928;2023-04-24T05:09:10;96740.59;;;11.73
20730;BMP280;10526;50.850;12.928;2023-04-24T05:13:39;96742.91;;;11.84
20730;BMP280;10526;50.850;12.928;2023-04-24T05:18:20;96736.19;;;12.14
20730;BMP280;10526;50.850;12.928;2023-04-24T05:22:43;96745.84;;;12.43
20730;BMP280;10526;50.850;12.928;2023-04-24T05:27:05;96754.41;;;12.90
20730;BMP280;10526;50.850;12.928;2023-04-24T05:31:34;96766.91;;;13.52
20730;BMP280;10526;50.850;12.928;2023-04-24T05:35:56;96769.75;;;14.03
20730;BMP280;10526;50.850;12.928;2023-04-24T05:40:19;96755.44;;;14.16
20730;BMP280;10526;50.850;12.928;2023-04-24T05:44:42;96777.72;;;14.31
20730;BMP280;10526;50.850;12.928;2023-04-24T05:49:05;96768.28;;;14.54
20730;BMP280;10526;50.850;12.928;2023-04-24T05:53:29;96768.44;;;15.26
20730;BMP280;10526;50.850;12.928;2023-04-24T05:57:51;96765.88;;;15.94
20730;BMP280;10526;50.850;12.928;2023-04-24T06:02:15;96769.41;;;16.15
20730;BMP280;10526;50.850;12.928;2023-04-24T06:06:39;96763.47;;;16.10
20730;BMP280;10526;50.850;12.928;2023-04-24T06:11:02;96765.78;;;16.03
20730;BMP280;10526;50.850;12.928;2023-04-24T06:15:29;96761.72;;;15.93
20730;BMP280;10526;50.850;12.928;2023-04-24T06:20:05;96755.06;;;16.32
20730;BMP280;10526;50.850;12.928;2023-04-24T06:24:29;96763.56;;;16.01
20730;BMP280;10526;50.850;12.928;2023-04-24T06:28:52;96764.47;;;15.84
20730;BMP280;10526;50.850;12.928;2023-04-24T06:33:18;96767.16;;;15.84
20730;BMP280;10526;50.850;12.928;2023-04-24T06:37:44;96776.25;;;15.38
20730;BMP280;10526;50.850;12.928;2023-04-24T06:42:06;96766.03;;;15.04
20730;BMP280;10526;50.850;12.928;2023-04-24T06:46:29;96761.00;;;14.63
20730;BMP280;10526;50.850;12.928;2023-04-24T06:50:52;96749.94;;;14.71
20730;BMP280;10526;50.850;12.928;2023-04-24T06:55:14;96754.31;;;14.92
20730;BMP280;10526;50.850;12.928;2023-04-24T06:59:38;96754.16;;;14.96
20730;BMP280;10526;50.850;12.928;2023-04-24T07:04:00;96763.03;;;15.11
20730;BMP280;10526;50.850;12.928;2023-04-24T07:08:22;96761.03;;;15.20
20730;BMP280;10526;50.850;12.928;2023-04-24T07:12:44;96760.66;;;15.04
20730;BMP280;10526;50.850;12.928;2023-04-24T07:17:06;96763.88;;;14.42
20730;BMP280;10526;50.850;12.928;2023-04-24T07:21:28;96772.06;;;14.38
20730;BMP280;10526;50.850;12.928;2023-04-24T07:25:50;96774.66;;;13.96
20730;BMP280;10526;50.850;12.928;2023-04-24T07:30:12;96771.34;;;13.92
20730;BMP280;10526;50.850;12.928;2023-04-24T07:34:35;96780.00;;;14.14
20730;BMP280;10526;50.850;12.928;2023-04-24T07:38:57;96778.50;;;14.31
20730;BMP280;10526;50.850;12.928;2023-04-24T07:43:20;96778.31;;;14.35
20730;BMP280;10526;50.850;12.928;2023-04-24T07:47:43;96785.59;;;14.44
20730;BMP280;10526;50.850;12.928;2023-04-24T07:52:07;96772.97;;;14.44
20730;BMP280;10526;50.850;12.928;2023-04-24T07:56:29;96786.03;;;14.51
20730;BMP280;10526;50.850;12.928;2023-04-24T08:00:53;96797.03;;;14.62
20730;BMP280;10526;50.850;12.928;2023-04-24T08:05:15;96792.66;;;14.65
20730;BMP280;10526;50.850;12.928;2023-04-24T08:09:37;96793.94;;;14.97
20730;BMP280;10526;50.850;12.928;2023-04-24T08:14:00;96804.44;;;15.10
20730;BMP280;10526;50.850;12.928;2023-04-24T08:18:22;96806.69;;;15.02
20730;BMP280;10526;50.850;12.928;2023-04-24T08:22:44;96797.44;;;15.36
20730;BMP280;10526;50.850;12.928;2023-04-24T08:27:10;96802.03;;;15.12
20730;BMP280;10526;50.850;12.928;2023-04-24T08:31:32;96806.31;;;15.28
20730;BMP280;10526;50.850;12.928;2023-04-24T08:35:55;96809.41;;;15.74
20730;BMP280;10526;50.850;12.928;2023-04-24T08:40:17;96806.06;;;15.64
20730;BMP280;10526;50.850;12.928;2023-04-24T08:44:39;96804.84;;;15.50
20730;BMP280;10526;50.850;12.928;2023-04-24T08:49:02;96801.88;;;16.02
20730;BMP280;10526;50.850;12.928;2023-04-24T08:53:26;96799.50;;;16.19
20730;BMP280;10526;50.850;12.928;2023-04-24T08:57:52;96797.91;;;16.71
20730;BMP280;10526;50.850;12.928;2023-04-24T09:02:16;96798.19;;;16.88
20730;BMP280;10526;50.850;12.928;2023-04-24T09:06:39;96786.31;;;16.80
20730;BMP280;10526;50.850;12.928;2023-04-24T09:11:01;96798.50;;;16.31
20730;BMP280;10526;50.850;12.928;2023-04-24T09:15:25;96790.69;;;16.18
20730;BMP280;10526;50.850;12.928;2023-04-24T09:19:48;96798.75;;;15.89
20730;BMP280;10526;50.850;12.928;2023-04-24T09:24:17;96799.34;;;15.45
20730;BMP280;10526;50.850;12.928;2023-04-24T09:28:40;96801.19;;;15.30
20730;BMP280;10526;50.850;12.928;2023-04-24T09:33:14;96789.06;;;15.19
20730;BMP280;10526;50.850;12.928;2023-04-24T09:37:42;96797.66;;;14.90
20730;BMP280;10526;50.850;12.928;2023-04-24T09:42:05;96801.09;;;14.91
20730;BMP280;10526;50.850;12.928;2023-04-24T09:46:31;96799.19;;;15.15
20730;BMP280;10526;50.850;12.928;2023-04-24T09:50:53;96801.28;;;15.44
20730;BMP280;10526;50.850;12.928;2023-04-24T09:55:19;96800.34;;;15.23
20730;BMP280;10526;50.850;12.928;2023-04-24T09:59:46;96794.63;;;15.31
20730;BMP280;10526;50.850;12.928;2023-04-24T10:04:23;96800.66;;;16.27
20730;BMP280;10526;50.850;12.928;2023-04-24T10:08:46;96815.84;;;20.15
20730;BMP280;10526;50.850;12.928;2023-04-24T10:13:11;96813.56;;;23.75
20730;BMP280;10526;50.850;12.928;2023-04-24T10:17:34;96786.59;;;24.88
20730;BMP280;10526;50.850;12.928;2023-04-24T10:21:57;96810.59;;;23.22
20730;BMP280;10526;50.850;12.928;2023-04-24T10:26:20;96809.53;;;24.26
20730;BMP280;10526;50.850;12.928;2023-04-24T10:30:43;96804.13;;;23.63
20730;BMP280;10526;50.850;12.928;2023-04-24T10:35:08;96807.16;;;20.89
20730;BMP280;10526;50.850;12.928;2023-04-24T10:39:31;96823.94;;;20.77
20730;BMP280;10526;50.850;12.928;2023-04-24T10:44:13;96834.88;;;24.35
20730;BMP280;10526;50.850;12.928;2023-04-24T10:48:36;96817.03;;;26.30
20730;BMP280;10526;50.850;12.928;2023-04-24T10:53:14;96844.50;;;25.83
20730;BMP280;10526;50.850;12.928;2023-04-24T10:57:36;96846.63;;;23.60
20730;BMP280;10526;50.850;12.928;2023-04-24T11:01:58;96833.97;;;21.56
20730;BMP280;10526;50.850;12.928;2023-04-24T11:06:32;96836.97;;;20.78
20730;BMP280;10526;50.850;12.928;2023-04-24T11:11:10;96842.13;;;20.15
20730;BMP280;10526;50.850;12.928;2023-04-24T11:15:33;96831.72;;;21.14
20730;BMP280;10526;50.850;12.928;2023-04-24T11:20:05;96851.47;;;20.58
20730;BMP280;10526;50.850;12.928;2023-04-24T11:29:14;96851.84;;;19.13
20730;BMP280;10526;50.850;12.928;2023-04-24T11:33:38;96856.84;;;18.83
20730;BMP280;10526;50.850;12.928;2023-04-24T11:38:01;96848.19;;;18.48
20730;BMP280;10526;50.850;12.928;2023-04-24T11:42:46;96862.66;;;18.76
20730;BMP280;10526;50.850;12.928;2023-04-24T11:47:08;96872.03;;;18.55
20730;BMP280;10526;50.850;12.928;2023-04-24T11:51:31;96881.94;;;19.01
20730;BMP280;10526;50.850;12.928;2023-04-24T11:56:11;96878.44;;;19.32
20730;BMP280;10526;50.850;12.928;2023-04-24T12:00:33;96876.53;;;19.38
20730;BMP280;10526;50.850;12.928;2023-04-24T12:04:56;96878.13;;;19.61
20730;BMP280;10526;50.850;12.928;2023-04-24T12:09:18;96885.97;;;19.11
20730;BMP280;10526;50.850;12.928;2023-04-24T12:13:40;96888.59;;;18.68
20730;BMP280;10526;50.850;12.928;2023-04-24T12:18:03;96893.72;;;18.14
20730;BMP280;10526;50.850;12.928;2023-04-24T12:22:26;96884.78;;;18.29
20730;BMP280;10526;50.850;12.928;2023-04-24T12:26:49;96879.63;;;18.51
20730;BMP280;10526;50.850;12.928;2023-04-24T12:31:11;96878.78;;;17.93
20730;BMP280;10526;50.850;12.928;2023-04-24T12:35:36;96876.31;;;18.15
20730;BMP280;10526;50.850;12.928;2023-04-24T12:40:12;96883.44;;;17.92
20730;BMP280;10526;50.850;12.928;2023-04-24T12:44:35;96890.63;;;17.81
20730;BMP280;10526;50.850;12.928;2023-04-24T12:48:58;96865.09;;;17.15
20730;BMP280;10526;50.850;12.928;2023-04-24T12:53:21;96875.31;;;16.96
20730;BMP280;10526;50.850;12.928;2023-04-24T12:57:43;96861.66;;;17.15
20730;BMP280;10526;50.850;12.928;2023-04-24T13:02:06;96862.63;;;17.73
20730;BMP280;10526;50.850;12.928;2023-04-24T13:06:28;96858.97;;;18.48
20730;BMP280;10526;50.850;12.928;2023-04-24T13:10:50;96867.94;;;18.34
20730;BMP280;10526;50.850;12.928;2023-04-24T13:15:13;96875.56;;;17.89
20730;BMP280;10526;50.850;12.928;2023-04-24T13:19:41;96870.31;;;17.59
20730;BMP280;10526;50.850;12.928;2023-04-24T13:24:04;96861.53;;;17.24
20730;BMP280;10526;50.850;12.928;2023-04-24T13:28:26;96858.06;;;17.58
20730;BMP280;10526;50.850;12.928;2023-04-24T13:32:49;96844.16;;;16.75
20730;BMP280;10526;50.850;12.928;2023-04-24T13:37:11;96831.56;;;16.37
20730;BMP280;10526;50.850;12.928;2023-04-24T13:41:34;96864.91;;;16.60
20730;BMP280;10526;50.850;12.928;2023-04-24T13:45:58;96858.50;;;17.01
20730;BMP280;10526;50.850;12.928;2023-04-24T13:50:21;96857.38;;;17.43
20730;BMP280;10526;50.850;12.928;2023-04-24T13:54:43;96846.91;;;17.10
20730;BMP280;10526;50.850;12.928;2023-04-24T13:59:05;96848.94;;;17.00
20730;BMP280;10526;50.850;12.928;2023-04-24T14:03:27;96848.91;;;17.30
20730;BMP280;10526;50.850;12.928;2023-04-24T14:07:50;96854.41;;;17.61
20730;BMP280;10526;50.850;12.928;2023-04-24T14:12:12;96861.53;;;17.44
20730;BMP280;10526;50.850;12.928;2023-04-24T14:16:35;96847.50;;;16.99
20730;BMP280;10526;50.850;12.928;2023-04-24T14:20:57;96856.19;;;16.94
20730;BMP280;10526;50.850;12.928;2023-04-24T14:25:20;96847.13;;;16.92
20730;BMP280;10526;50.850;12.928;2023-04-24T14:29:42;96844.00;;;16.64
20730;BMP280;10526;50.850;12.928;2023-04-24T14:34:04;96842.63;;;16.54
20730;BMP280;10526;50.850;12.928;2023-04-24T14:38:26;96842.88;;;16.56
20730;BMP280;10526;50.850;12.928;2023-04-24T14:42:48;96842.97;;;16.32
20730;BMP280;10526;50.850;12.928;2023-04-24T14:47:10;96842.06;;;15.96
20730;BMP280;10526;50.850;12.928;2023-04-24T14:51:33;96856.41;;;15.45
20730;BMP280;10526;50.850;12.928;2023-04-24T14:55:55;96856.69;;;15.14
20730;BMP280;10526;50.850;12.928;2023-04-24T15:00:18;96841.25;;;15.09
20730;BMP280;10526;50.850;12.928;2023-04-24T15:04:42;96857.88;;;15.22
20730;BMP280;10526;50.850;12.928;2023-04-24T15:09:04;96854.69;;;15.57
20730;BMP280;10526;50.850;12.928;2023-04-24T15:13:27;96857.50;;;15.87
20730;BMP280;10526;50.850;12.928;2023-04-24T15:17:49;96882.28;;;16.05
20730;BMP280;10526;50.850;12.928;2023-04-24T15:22:14;96882.66;;;16.13
20730;BMP280;10526;50.850;12.928;2023-04-24T15:26:39;96897.53;;;15.99
20730;BMP280;10526;50.850;12.928;2023-04-24T15:31:01;96887.63;;;15.67
20730;BMP280;10526;50.850;12.928;2023-04-24T15:35:23;96895.44;;;15.56
20730;BMP280;10526;50.850;12.928;2023-04-24T15:39:45;96889.31;;;15.55
20730;BMP280;10526;50.850;12.928;2023-04-24T15:44:08;96903.13;;;15.30
20730;BMP280;10526;50.850;12.928;2023-04-24T15:48:30;96917.94;;;15.07
20730;BMP280;10526;50.850;12.928;2023-04-24T15:52:52;96921.88;;;14.97
20730;BMP280;10526;50.850;12.928;2023-04-24T15:57:15;96922.47;;;14.73
20730;BMP280;10526;50.850;12.928;2023-04-24T16:01:38;96935.28;;;14.14
20730;BMP280;10526;50.850;12.928;2023-04-24T16:06:00;96933.28;;;13.78
20730;BMP280;10526;50.850;12.928;2023-04-24T16:10:23;96955.66;;;13.62
20730;BMP280;10526;50.850;12.928;2023-04-24T16:14:46;96941.09;;;13.63
20730;BMP280;10526;50.850;12.928;2023-04-24T16:19:08;96952.59;;;13.82
20730;BMP280;10526;50.850;12.928;2023-04-24T16:23:30;96945.84;;;14.18
20730;BMP280;10526;50.850;12.928;2023-04-24T16:27:52;96961.94;;;14.36
20730;BMP280;10526;50.850;12.928;2023-04-24T16:32:14;96955.53;;;14.24
20730;BMP280;10526;50.850;12.928;2023-04-24T16:36:37;96960.41;;;14.17
20730;BMP280;10526;50.850;12.928;2023-04-24T16:40:59;96957.72;;;14.17
20730;BMP280;10526;50.850;12.928;2023-04-24T16:45:21;96964.56;;;14.18
20730;BMP280;10526;50.850;12.928;2023-04-24T16:49:43;96973.03;;;14.07
20730;BMP280;10526;50.850;12.928;2023-04-24T16:54:05;96968.69;;;14.00
20730;BMP280;10526;50.850;12.928;2023-04-24T16:58:27;96968.06;;;13.87
20730;BMP280;10526;50.850;12.928;2023-04-24T17:02:50;96975.28;;;13.68
20730;BMP280;10526;50.850;12.928;2023-04-24T17:07:13;96984.78;;;13.38
20730;BMP280;10526;50.850;12.928;2023-04-24T17:11:35;96980.53;;;13.19
20730;BMP280;10526;50.850;12.928;2023-04-24T17:15:57;96981.44;;;13.03
20730;BMP280;10526;50.850;12.928;2023-04-24T17:20:19;96987.41;;;12.85
20730;BMP280;10526;50.850;12.928;2023-04-24T17:24:44;96983.16;;;12.75
20730;BMP280;10526;50.850;12.928;2023-04-24T17:29:07;96990.22;;;12.69
20730;BMP280;10526;50.850;12.928;2023-04-24T17:33:36;97000.53;;;12.58
20730;BMP280;10526;50.850;12.928;2023-04-24T17:37:58;96991.59;;;12.52
20730;BMP280;10526;50.850;12.928;2023-04-24T17:42:20;97006.19;;;12.47
20730;BMP280;10526;50.850;12.928;2023-04-24T17:46:42;96998.13;;;12.38
20730;BMP280;10526;50.850;12.928;2023-04-24T17:51:04;97006.13;;;12.25
20730;BMP280;10526;50.850;12.928;2023-04-24T17:55:26;97009.03;;;12.05
20730;BMP280;10526;50.850;12.928;2023-04-24T17:59:48;97013.59;;;11.92
20730;BMP280;10526;50.850;12.928;2023-04-24T18:04:10;97035.22;;;11.82
20730;BMP280;10526;50.850;12.928;2023-04-24T18:08:33;97052.94;;;11.75
20730;BMP280;10526;50.850;12.928;2023-04-24T18:12:57;97068.94;;;11.34
20730;BMP280;10526;50.850;12.928;2023-04-24T18:17:21;97064.34;;;10.89
20730;BMP280;10526;50.850;12.928;2023-04-24T18:21:46;97067.66;;;10.60
20730;BMP280;10526;50.850;12.928;2023-04-24T18:26:09;97060.38;;;10.28
20730;BMP280;10526;50.850;12.928;2023-04-24T18:30:30;97060.28;;;10.16
20730;BMP280;10526;50.850;12.928;2023-04-24T18:34:53;97063.75;;;10.13
20730;BMP280;10526;50.850;12.928;2023-04-24T18:39:16;97068.97;;;10.00
20730;BMP280;10526;50.850;12.928;2023-04-24T18:43:38;97082.22;;;9.83
20730;BMP280;10526;50.850;12.928;2023-04-24T18:48:00;97082.03;;;9.71
20730;BMP280;10526;50.850;12.928;2023-04-24T18:52:23;97091.75;;;9.61
20730;BMP280;10526;50.850;12.928;2023-04-24T18:56:46;97098.47;;;9.66
20730;BMP280;10526;50.850;12.928;2023-04-24T19:01:08;97092.97;;;9.76
20730;BMP280;10526;50.850;12.928;2023-04-24T19:05:30;97102.31;;;9.84
20730;BMP280;10526;50.850;12.928;2023-04-24T19:09:52;97108.66;;;9.91
20730;BMP280;10526;50.850;12.928;2023-04-24T19:14:14;97118.38;;;9.97
20730;BMP280;10526;50.850;12.928;2023-04-24T19:18:36;97124.41;;;10.01
20730;BMP280;10526;50.850;12.928;2023-04-24T19:22:59;97130.75;;;10.07
20730;BMP280;10526;50.850;12.928;2023-04-24T19:27:21;97124.66;;;10.07
20730;BMP280;10526;50.850;12.928;2023-04-24T19:31:43;97131.91;;;10.06
20730;BMP280;10526;50.850;12.928;2023-04-24T19:36:07;97128.22;;;10.00
20730;BMP280;10526;50.850;12.928;2023-04-24T19:40:30;97132.50;;;9.94
20730;BMP280;10526;50.850;12.928;2023-04-24T19:44:52;97135.09;;;9.98
20730;BMP280;10526;50.850;12.928;2023-04-24T19:49:14;97135.03;;;10.01
20730;BMP280;10526;50.850;12.928;2023-04-24T19:53:37;97138.72;;;10.07
20730;BMP280;10526;50.850;12.928;2023-04-24T19:57:59;97139.81;;;10.10
20730;BMP280;10526;50.850;12.928;2023-04-24T20:02:21;97142.63;;;10.03
20730;BMP280;10526;50.850;12.928;2023-04-24T20:06:44;97145.81;;;9.94
20730;BMP280;10526;50.850;12.928;2023-04-24T20:11:06;97143.81;;;9.78
20730;BMP280;10526;50.850;12.928;2023-04-24T20:15:28;97140.34;;;9.62
20730;BMP280;10526;50.850;12.928;2023-04-24T20:19:50;97131.09;;;9.46
20730;BMP280;10526;50.850;12.928;2023-04-24T20:24:13;97132.31;;;9.42
20730;BMP280;10526;50.850;12.928;2023-04-24T20:28:37;97139.81;;;9.47
20730;BMP280;10526;50.850;12.928;2023-04-24T20:32:59;97135.13;;;9.54
20730;BMP280;10526;50.850;12.928;2023-04-24T20:37:21;97138.91;;;9.57
20730;BMP280;10526;50.850;12.928;2023-04-24T20:41:45;97128.31;;;9.53
20730;BMP280;10526;50.850;12.928;2023-04-24T20:46:08;97130.97;;;9.53
20730;BMP280;10526;50.850;12.928;2023-04-24T20:50:30;97131.25;;;9.59
20730;BMP280;10526;50.850;12.928;2023-04-24T20:54:54;97141.00;;;9.66
20730;BMP280;10526;50.850;12.928;2023-04-24T20:59:15;97133.41;;;9.68
20730;BMP280;10526;50.850;12.928;2023-04-24T21:03:37;97140.22;;;9.69
20730;BMP280;10526;50.850;12.928;2023-04-24T21:08:00;97138.63;;;9.71
20730;BMP280;10526;50.850;12.928;2023-04-24T21:12:22;97141.00;;;9.66
20730;BMP280;10526;50.850;12.928;2023-04-24T21:16:44;97141.88;;;9.59
20730;BMP280;10526;50.850;12.928;2023-04-24T21:21:09;97135.25;;;9.47
20730;BMP280;10526;50.850;12.928;2023-04-24T21:25:32;97130.84;;;9.41
20730;BMP280;10526;50.850;12.928;2023-04-24T21:29:55;97129.34;;;9.36
20730;BMP280;10526;50.850;12.928;2023-04-24T21:34:17;97136.66;;;9.32
20730;BMP280;10526;50.850;12.928;2023-04-24T21:38:39;97129.84;;;9.31
20730;BMP280;10526;50.850;12.928;2023-04-24T21:43:01;97127.19;;;9.31
20730;BMP280;10526;50.850;12.928;2023-04-24T21:47:24;97124.56;;;9.27
20730;BMP280;10526;50.850;12.928;2023-04-24T21:51:46;97125.06;;;9.22
20730;BMP280;10526;50.850;12.928;2023-04-24T21:56:08;97115.34;;;9.12
20730;BMP280;10526;50.850;12.928;2023-04-24T22:00:30;97112.50;;;8.99
20730;BMP280;10526;50.850;12.928;2023-04-24T22:04:54;97116.53;;;8.84
20730;BMP280;10526;50.850;12.928;2023-04-24T22:09:17;97117.19;;;8.65
20730;BMP280;10526;50.850;12.928;2023-04-24T22:13:39;97122.38;;;8.45
20730;BMP280;10526;50.850;12.928;2023-04-24T22:18:01;97122.13;;;8.32
20730;BMP280;10526;50.850;12.928;2023-04-24T22:22:27;97122.50;;;8.34
20730;BMP280;10526;50.850;12.928;2023-04-24T22:26:49;97125.19;;;8.31
20730;BMP280;10526;50.850;12.928;2023-04-24T22:31:11;97121.41;;;8.28
20730;BMP280;10526;50.850;12.928;2023-04-24T22:35:33;97127.19;;;8.23
20730;BMP280;10526;50.850;12.928;2023-04-24T22:39:57;97116.22;;;8.17
20730;BMP280;10526;50.850;12.928;2023-04-24T22:44:22;97115.13;;;8.15
20730;BMP280;10526;50.850;12.928;2023-04-24T22:48:44;97125.03;;;8.11
20730;BMP280;10526;50.850;12.928;2023-04-24T22:53:08;97122.03;;;8.09
20730;BMP280;10526;50.850;12.928;2023-04-24T22:57:29;97121.38;;;7.98
20730;BMP280;10526;50.850;12.928;2023-04-24T23:01:51;97118.16;;;7.79
20730;BMP280;10526;50.850;12.928;2023-04-24T23:06:13;97118.72;;;7.60
20730;BMP280;10526;50.850;12.928;2023-04-24T23:10:36;97127.59;;;7.43
20730;BMP280;10526;50.850;12.928;2023-04-24T23:14:59;97122.41;;;7.28
20730;BMP280;10526;50.850;12.928;2023-04-24T23:19:21;97119.13;;;7.10
20730;BMP280;10526;50.850;12.928;2023-04-24T23:23:43;97113.09;;;7.06
20730;BMP280;10526;50.850;12.928;2023-04-24T23:28:05;97114.72;;;6.93
20730;BMP280;10526;50.850;12.928;2023-04-24T23:32:28;97113.28;;;6.81
20730;BMP280;10526;50.850;12.928;2023-04-24T23:36:50;97107.66;;;6.72
20730;BMP280;10526;50.850;12.928;2023-04-24T23:41:15;97106.56;;;6.62
20730;BMP280;10526;50.850;12.928;2023-04-24T23:45:37;97101.34;;;6.48
20730;BMP280;10526;50.850;12.928;2023-04-24T23:49:59;97093.84;;;6.35
20730;BMP280;10526;50.850;12.928;2023-04-24T23:54:22;97102.19;;;6.30
20730;BMP280;10526;50.850;12.928;2023-04-24T23:58:44;97106.75;;;6.23
